sensor_id;sensor_type;location;lat;lon;timestamp;P1;durP1;ratioP1;P2;durP2;ratioP2
21705;SDS011;11014;53.076;18.208;2022-11-23T00:01:25;82.60;;;32.40;;
21705;SDS011;11014;53.076;18.208;2022-11-23T00:04:00;78.63;;;30.65;;
21705;SDS011;11014;53.076;18.208;2022-11-23T00:06:33;84.47;;;31.73;;
21705;SDS011;11014;53.076;18.208;2022-11-23T00:09:02;85.78;;;32.60;;
21705;SDS011;11014;53.076;18.208;2022-11-23T00:11:32;78.53;;;31.92;;
21705;SDS011;11014;53.076;18.208;2022-11-23T00:14:02;81.93;;;33.47;;
21705;SDS011;11014;53.076;18.208;2022-11-23T00:16:32;85.03;;;31.95;;
21705;SDS011;11014;53.076;18.208;2022-11-23T00:19:00;87.90;;;32.65;;
21705;SDS011;11014;53.076;18.208;2022-11-23T00:21:30;87.60;;;32.20;;
21705;SDS011;11014;53.076;18.208;2022-11-23T00:24:00;84.45;;;32.72;;
21705;SDS011;11014;53.076;18.208;2022-11-23T00:26:28;86.65;;;31.40;;
21705;SDS011;11014;53.076;18.208;2022-11-23T00:28:57;93.90;;;32.35;;
21705;SDS011;11014;53.076;18.208;2022-11-23T00:31:27;96.57;;;33.50;;
21705;SDS011;11014;53.076;18.208;2022-11-23T00:33:59;86.20;;;32.13;;
21705;SDS011;11014;53.076;18.208;2022-11-23T00:36:29;86.85;;;31.95;;
21705;SDS011;11014;53.076;18.208;2022-11-23T00:39:00;87.68;;;31.95;;
21705;SDS011;11014;53.076;18.208;2022-11-23T00:41:28;92.13;;;32.40;;
21705;SDS011;11014;53.076;18.208;2022-11-23T00:43:57;97.05;;;33.30;;
21705;SDS011;11014;53.076;18.208;2022-11-23T00:46:26;100.13;;;33.50;;
21705;SDS011;11014;53.076;18.208;2022-11-23T00:48:57;88.68;;;32.30;;
21705;SDS011;11014;53.076;18.208;2022-11-23T00:51:29;95.40;;;32.67;;
21705;SDS011;11014;53.076;18.208;2022-11-23T00:54:01;90.80;;;30.67;;
21705;SDS011;11014;53.076;18.208;2022-11-23T00:56:31;90.50;;;31.90;;
21705;SDS011;11014;53.076;18.208;2022-11-23T00:59:01;93.57;;;31.10;;
21705;SDS011;11014;53.076;18.208;2022-11-23T01:01:33;86.35;;;31.15;;
21705;SDS011;11014;53.076;18.208;2022-11-23T01:04:05;96.32;;;32.30;;
21705;SDS011;11014;53.076;18.208;2022-11-23T01:06:35;100.65;;;32.45;;
21705;SDS011;11014;53.076;18.208;2022-11-23T01:09:12;95.03;;;31.13;;
21705;SDS011;11014;53.076;18.208;2022-11-23T01:11:44;96.65;;;31.65;;
21705;SDS011;11014;53.076;18.208;2022-11-23T01:14:13;101.05;;;32.17;;
21705;SDS011;11014;53.076;18.208;2022-11-23T01:16:41;106.50;;;33.38;;
21705;SDS011;11014;53.076;18.208;2022-11-23T01:19:11;91.85;;;31.83;;
21705;SDS011;11014;53.076;18.208;2022-11-23T01:21:46;96.47;;;31.70;;
21705;SDS011;11014;53.076;18.208;2022-11-23T01:24:16;92.47;;;31.40;;
21705;SDS011;11014;53.076;18.208;2022-11-23T01:26:52;102.00;;;33.75;;
21705;SDS011;11014;53.076;18.208;2022-11-23T01:29:22;98.60;;;32.13;;
21705;SDS011;11014;53.076;18.208;2022-11-23T01:31:51;107.90;;;32.78;;
21705;SDS011;11014;53.076;18.208;2022-11-23T01:34:21;98.53;;;31.75;;
21705;SDS011;11014;53.076;18.208;2022-11-23T01:36:50;103.82;;;33.22;;
21705;SDS011;11014;53.076;18.208;2022-11-23T01:39:19;99.22;;;32.92;;
21705;SDS011;11014;53.076;18.208;2022-11-23T01:41:47;103.95;;;34.13;;
21705;SDS011;11014;53.076;18.208;2022-11-23T01:44:24;114.00;;;33.55;;
21705;SDS011;11014;53.076;18.208;2022-11-23T01:47:02;106.78;;;33.05;;
21705;SDS011;11014;53.076;18.208;2022-11-23T01:52:11;109.25;;;32.88;;
21705;SDS011;11014;53.076;18.208;2022-11-23T01:54:44;108.25;;;33.90;;
21705;SDS011;11014;53.076;18.208;2022-11-23T01:57:16;103.55;;;34.95;;
21705;SDS011;11014;53.076;18.208;2022-11-23T01:59:48;115.95;;;35.88;;
21705;SDS011;11014;53.076;18.208;2022-11-23T02:02:18;111.70;;;35.67;;
21705;SDS011;11014;53.076;18.208;2022-11-23T02:04:50;121.85;;;35.92;;
21705;SDS011;11014;53.076;18.208;2022-11-23T02:07:20;112.20;;;35.22;;
21705;SDS011;11014;53.076;18.208;2022-11-23T02:09:51;114.80;;;35.08;;
21705;SDS011;11014;53.076;18.208;2022-11-23T02:12:20;111.13;;;34.85;;
21705;SDS011;11014;53.076;18.208;2022-11-23T02:14:48;128.55;;;36.00;;
21705;SDS011;11014;53.076;18.208;2022-11-23T02:17:18;131.55;;;37.00;;
21705;SDS011;11014;53.076;18.208;2022-11-23T02:20:03;118.47;;;33.50;;
21705;SDS011;11014;53.076;18.208;2022-11-23T02:25:57;118.95;;;33.97;;
21705;SDS011;11014;53.076;18.208;2022-11-23T02:28:37;117.57;;;34.47;;
21705;SDS011;11014;53.076;18.208;2022-11-23T02:31:09;125.32;;;36.17;;
21705;SDS011;11014;53.076;18.208;2022-11-23T02:33:38;117.70;;;33.72;;
21705;SDS011;11014;53.076;18.208;2022-11-23T02:39:13;109.60;;;32.58;;
21705;SDS011;11014;53.076;18.208;2022-11-23T02:41:49;113.35;;;34.05;;
21705;SDS011;11014;53.076;18.208;2022-11-23T02:44:41;114.90;;;34.15;;
21705;SDS011;11014;53.076;18.208;2022-11-23T02:47:32;122.30;;;34.53;;
21705;SDS011;11014;53.076;18.208;2022-11-23T02:50:00;125.07;;;34.92;;
21705;SDS011;11014;53.076;18.208;2022-11-23T02:52:32;121.03;;;34.38;;
21705;SDS011;11014;53.076;18.208;2022-11-23T02:55:00;124.30;;;35.95;;
21705;SDS011;11014;53.076;18.208;2022-11-23T02:57:30;116.72;;;33.42;;
21705;SDS011;11014;53.076;18.208;2022-11-23T02:59:59;120.63;;;35.25;;
21705;SDS011;11014;53.076;18.208;2022-11-23T03:02:27;111.50;;;32.83;;
21705;SDS011;11014;53.076;18.208;2022-11-23T03:04:56;113.40;;;33.38;;
21705;SDS011;11014;53.076;18.208;2022-11-23T03:07:24;111.05;;;33.50;;
21705;SDS011;11014;53.076;18.208;2022-11-23T03:09:53;125.18;;;34.47;;
21705;SDS011;11014;53.076;18.208;2022-11-23T03:12:22;110.47;;;32.80;;
21705;SDS011;11014;53.076;18.208;2022-11-23T03:14:50;107.90;;;32.75;;
21705;SDS011;11014;53.076;18.208;2022-11-23T03:17:20;104.72;;;32.25;;
21705;SDS011;11014;53.076;18.208;2022-11-23T03:19:49;113.60;;;32.85;;
21705;SDS011;11014;53.076;18.208;2022-11-23T03:22:18;115.03;;;31.73;;
21705;SDS011;11014;53.076;18.208;2022-11-23T03:24:47;108.10;;;32.05;;
21705;SDS011;11014;53.076;18.208;2022-11-23T03:27:17;101.97;;;31.33;;
21705;SDS011;11014;53.076;18.208;2022-11-23T03:29:46;99.60;;;31.77;;
21705;SDS011;11014;53.076;18.208;2022-11-23T03:32:19;101.10;;;31.15;;
21705;SDS011;11014;53.076;18.208;2022-11-23T03:34:52;99.28;;;30.90;;
21705;SDS011;11014;53.076;18.208;2022-11-23T03:37:22;96.13;;;31.88;;
21705;SDS011;11014;53.076;18.208;2022-11-23T03:39:52;91.22;;;30.65;;
21705;SDS011;11014;53.076;18.208;2022-11-23T03:42:53;101.53;;;30.55;;
21705;SDS011;11014;53.076;18.208;2022-11-23T03:45:21;102.00;;;30.17;;
21705;SDS011;11014;53.076;18.208;2022-11-23T03:47:51;101.05;;;31.15;;
21705;SDS011;11014;53.076;18.208;2022-11-23T03:50:19;99.93;;;30.75;;
21705;SDS011;11014;53.076;18.208;2022-11-23T03:52:48;101.68;;;30.90;;
21705;SDS011;11014;53.076;18.208;2022-11-23T03:55:17;90.97;;;29.45;;
21705;SDS011;11014;53.076;18.208;2022-11-23T03:57:46;100.63;;;31.42;;
21705;SDS011;11014;53.076;18.208;2022-11-23T04:00:15;96.45;;;29.02;;
21705;SDS011;11014;53.076;18.208;2022-11-23T04:02:46;98.10;;;29.23;;
21705;SDS011;11014;53.076;18.208;2022-11-23T04:05:40;98.18;;;29.70;;
21705;SDS011;11014;53.076;18.208;2022-11-23T04:08:44;92.70;;;28.88;;
21705;SDS011;11014;53.076;18.208;2022-11-23T04:11:19;89.10;;;29.17;;
21705;SDS011;11014;53.076;18.208;2022-11-23T04:13:49;92.35;;;28.95;;
21705;SDS011;11014;53.076;18.208;2022-11-23T04:16:19;96.57;;;28.75;;
21705;SDS011;11014;53.076;18.208;2022-11-23T04:18:48;91.07;;;28.55;;
21705;SDS011;11014;53.076;18.208;2022-11-23T04:21:16;93.78;;;28.30;;
21705;SDS011;11014;53.076;18.208;2022-11-23T04:23:45;89.95;;;28.63;;
21705;SDS011;11014;53.076;18.208;2022-11-23T04:26:15;95.18;;;28.70;;
21705;SDS011;11014;53.076;18.208;2022-11-23T04:28:46;83.55;;;28.20;;
21705;SDS011;11014;53.076;18.208;2022-11-23T04:31:15;96.50;;;33.42;;
21705;SDS011;11014;53.076;18.208;2022-11-23T04:33:54;87.60;;;31.05;;
21705;SDS011;11014;53.076;18.208;2022-11-23T04:36:25;96.65;;;32.10;;
21705;SDS011;11014;53.076;18.208;2022-11-23T04:38:54;88.00;;;29.50;;
21705;SDS011;11014;53.076;18.208;2022-11-23T04:41:32;91.10;;;29.65;;
21705;SDS011;11014;53.076;18.208;2022-11-23T04:44:02;87.70;;;29.48;;
21705;SDS011;11014;53.076;18.208;2022-11-23T04:46:32;91.90;;;29.45;;
21705;SDS011;11014;53.076;18.208;2022-11-23T04:49:08;90.80;;;29.70;;
21705;SDS011;11014;53.076;18.208;2022-11-23T04:51:38;93.18;;;29.02;;
21705;SDS011;11014;53.076;18.208;2022-11-23T04:54:08;95.00;;;29.48;;
21705;SDS011;11014;53.076;18.208;2022-11-23T04:56:47;91.82;;;29.02;;
21705;SDS011;11014;53.076;18.208;2022-11-23T04:59:16;91.63;;;29.33;;
21705;SDS011;11014;53.076;18.208;2022-11-23T05:01:46;88.85;;;28.33;;
21705;SDS011;11014;53.076;18.208;2022-11-23T05:04:35;93.95;;;28.00;;
21705;SDS011;11014;53.076;18.208;2022-11-23T05:07:04;92.28;;;29.17;;
21705;SDS011;11014;53.076;18.208;2022-11-23T05:09:34;90.03;;;27.55;;
21705;SDS011;11014;53.076;18.208;2022-11-23T05:12:11;91.65;;;28.58;;
21705;SDS011;11014;53.076;18.208;2022-11-23T05:14:40;91.88;;;29.42;;
21705;SDS011;11014;53.076;18.208;2022-11-23T05:17:11;94.90;;;31.42;;
21705;SDS011;11014;53.076;18.208;2022-11-23T05:19:43;97.80;;;31.58;;
21705;SDS011;11014;53.076;18.208;2022-11-23T05:22:13;106.50;;;34.20;;
21705;SDS011;11014;53.076;18.208;2022-11-23T05:24:43;111.70;;;35.42;;
21705;SDS011;11014;53.076;18.208;2022-11-23T05:27:15;119.50;;;37.28;;
21705;SDS011;11014;53.076;18.208;2022-11-23T05:29:46;118.20;;;36.53;;
21705;SDS011;11014;53.076;18.208;2022-11-23T05:32:15;121.63;;;38.38;;
21705;SDS011;11014;53.076;18.208;2022-11-23T05:34:44;115.50;;;34.83;;
21705;SDS011;11014;53.076;18.208;2022-11-23T05:37:15;110.93;;;33.13;;
21705;SDS011;11014;53.076;18.208;2022-11-23T05:39:59;110.32;;;33.58;;
21705;SDS011;11014;53.076;18.208;2022-11-23T05:42:31;98.80;;;32.47;;
21705;SDS011;11014;53.076;18.208;2022-11-23T05:45:08;110.28;;;32.78;;
21705;SDS011;11014;53.076;18.208;2022-11-23T05:47:47;105.28;;;30.77;;
21705;SDS011;11014;53.076;18.208;2022-11-23T05:50:23;96.35;;;29.50;;
21705;SDS011;11014;53.076;18.208;2022-11-23T05:53:12;103.45;;;29.90;;
21705;SDS011;11014;53.076;18.208;2022-11-23T05:55:44;92.55;;;28.95;;
21705;SDS011;11014;53.076;18.208;2022-11-23T05:58:13;99.72;;;30.13;;
21705;SDS011;11014;53.076;18.208;2022-11-23T06:00:42;98.97;;;29.10;;
21705;SDS011;11014;53.076;18.208;2022-11-23T06:03:10;100.72;;;29.92;;
21705;SDS011;11014;53.076;18.208;2022-11-23T06:05:40;92.53;;;30.00;;
21705;SDS011;11014;53.076;18.208;2022-11-23T06:08:09;94.53;;;31.80;;
21705;SDS011;11014;53.076;18.208;2022-11-23T06:10:39;91.93;;;31.70;;
21705;SDS011;11014;53.076;18.208;2022-11-23T06:13:08;89.80;;;29.83;;
21705;SDS011;11014;53.076;18.208;2022-11-23T06:15:36;87.80;;;29.10;;
21705;SDS011;11014;53.076;18.208;2022-11-23T06:18:05;93.15;;;29.55;;
21705;SDS011;11014;53.076;18.208;2022-11-23T06:20:44;88.55;;;29.60;;
21705;SDS011;11014;53.076;18.208;2022-11-23T06:23:13;92.40;;;29.63;;
21705;SDS011;11014;53.076;18.208;2022-11-23T06:25:41;96.43;;;31.65;;
21705;SDS011;11014;53.076;18.208;2022-11-23T06:28:22;91.57;;;29.70;;
21705;SDS011;11014;53.076;18.208;2022-11-23T06:30:54;96.38;;;29.55;;
21705;SDS011;11014;53.076;18.208;2022-11-23T06:33:24;95.45;;;31.30;;
21705;SDS011;11014;53.076;18.208;2022-11-23T06:35:54;92.00;;;29.80;;
21705;SDS011;11014;53.076;18.208;2022-11-23T06:38:28;90.65;;;30.15;;
21705;SDS011;11014;53.076;18.208;2022-11-23T06:41:02;102.07;;;30.98;;
21705;SDS011;11014;53.076;18.208;2022-11-23T06:43:31;97.28;;;30.05;;
21705;SDS011;11014;53.076;18.208;2022-11-23T06:46:04;91.63;;;30.63;;
21705;SDS011;11014;53.076;18.208;2022-11-23T06:48:37;93.22;;;30.13;;
21705;SDS011;11014;53.076;18.208;2022-11-23T06:51:07;95.30;;;31.30;;
21705;SDS011;11014;53.076;18.208;2022-11-23T06:53:37;91.35;;;30.83;;
21705;SDS011;11014;53.076;18.208;2022-11-23T06:56:08;98.05;;;31.05;;
21705;SDS011;11014;53.076;18.208;2022-11-23T06:58:36;89.32;;;30.92;;
21705;SDS011;11014;53.076;18.208;2022-11-23T07:01:11;90.88;;;30.58;;
21705;SDS011;11014;53.076;18.208;2022-11-23T07:03:53;101.40;;;31.95;;
21705;SDS011;11014;53.076;18.208;2022-11-23T07:06:28;95.57;;;31.95;;
21705;SDS011;11014;53.076;18.208;2022-11-23T07:11:44;87.25;;;30.58;;
21705;SDS011;11014;53.076;18.208;2022-11-23T07:14:17;100.47;;;32.92;;
21705;SDS011;11014;53.076;18.208;2022-11-23T07:16:50;96.28;;;34.03;;
21705;SDS011;11014;53.076;18.208;2022-11-23T07:19:19;89.47;;;31.63;;
21705;SDS011;11014;53.076;18.208;2022-11-23T07:21:49;90.72;;;31.08;;
21705;SDS011;11014;53.076;18.208;2022-11-23T07:24:18;98.82;;;35.25;;
21705;SDS011;11014;53.076;18.208;2022-11-23T07:26:46;106.50;;;36.38;;
21705;SDS011;11014;53.076;18.208;2022-11-23T07:29:15;100.57;;;34.50;;
21705;SDS011;11014;53.076;18.208;2022-11-23T07:31:43;106.07;;;34.92;;
21705;SDS011;11014;53.076;18.208;2022-11-23T07:34:13;98.75;;;34.35;;
21705;SDS011;11014;53.076;18.208;2022-11-23T07:36:43;111.45;;;38.20;;
21705;SDS011;11014;53.076;18.208;2022-11-23T07:39:12;179.02;;;71.95;;
21705;SDS011;11014;53.076;18.208;2022-11-23T07:41:42;147.55;;;62.33;;
21705;SDS011;11014;53.076;18.208;2022-11-23T07:44:18;114.55;;;43.33;;
21705;SDS011;11014;53.076;18.208;2022-11-23T07:46:46;100.07;;;35.22;;
21705;SDS011;11014;53.076;18.208;2022-11-23T07:49:15;100.97;;;38.58;;
21705;SDS011;11014;53.076;18.208;2022-11-23T07:51:43;102.38;;;36.05;;
21705;SDS011;11014;53.076;18.208;2022-11-23T07:54:15;92.13;;;33.55;;
21705;SDS011;11014;53.076;18.208;2022-11-23T07:56:51;88.57;;;30.80;;
21705;SDS011;11014;53.076;18.208;2022-11-23T07:59:20;88.75;;;31.50;;
21705;SDS011;11014;53.076;18.208;2022-11-23T08:01:48;86.40;;;30.70;;
21705;SDS011;11014;53.076;18.208;2022-11-23T08:04:23;91.32;;;31.52;;
21705;SDS011;11014;53.076;18.208;2022-11-23T08:06:54;93.20;;;33.33;;
21705;SDS011;11014;53.076;18.208;2022-11-23T08:09:23;96.70;;;32.70;;
21705;SDS011;11014;53.076;18.208;2022-11-23T08:11:52;91.20;;;33.40;;
21705;SDS011;11014;53.076;18.208;2022-11-23T08:14:20;92.75;;;32.22;;
21705;SDS011;11014;53.076;18.208;2022-11-23T08:16:49;93.00;;;32.70;;
21705;SDS011;11014;53.076;18.208;2022-11-23T08:19:18;101.30;;;33.25;;
21705;SDS011;11014;53.076;18.208;2022-11-23T08:21:46;92.53;;;32.47;;
21705;SDS011;11014;53.076;18.208;2022-11-23T08:24:14;87.88;;;30.35;;
21705;SDS011;11014;53.076;18.208;2022-11-23T08:26:43;83.53;;;31.48;;
21705;SDS011;11014;53.076;18.208;2022-11-23T08:29:12;82.25;;;30.65;;
21705;SDS011;11014;53.076;18.208;2022-11-23T08:31:40;85.15;;;30.58;;
21705;SDS011;11014;53.076;18.208;2022-11-23T08:34:09;80.80;;;28.67;;
21705;SDS011;11014;53.076;18.208;2022-11-23T08:36:38;85.68;;;30.38;;
21705;SDS011;11014;53.076;18.208;2022-11-23T08:39:06;80.88;;;29.02;;
21705;SDS011;11014;53.076;18.208;2022-11-23T08:41:36;74.22;;;29.27;;
21705;SDS011;11014;53.076;18.208;2022-11-23T08:44:05;86.25;;;29.77;;
21705;SDS011;11014;53.076;18.208;2022-11-23T08:46:37;73.95;;;27.00;;
21705;SDS011;11014;53.076;18.208;2022-11-23T08:49:06;76.15;;;28.15;;
21705;SDS011;11014;53.076;18.208;2022-11-23T08:51:35;80.82;;;27.70;;
21705;SDS011;11014;53.076;18.208;2022-11-23T08:54:03;78.28;;;27.70;;
21705;SDS011;11014;53.076;18.208;2022-11-23T08:56:32;74.68;;;28.63;;
21705;SDS011;11014;53.076;18.208;2022-11-23T08:59:00;75.32;;;27.50;;
21705;SDS011;11014;53.076;18.208;2022-11-23T09:01:29;76.90;;;26.80;;
21705;SDS011;11014;53.076;18.208;2022-11-23T09:03:58;88.63;;;30.25;;
21705;SDS011;11014;53.076;18.208;2022-11-23T09:06:26;80.03;;;27.10;;
21705;SDS011;11014;53.076;18.208;2022-11-23T09:08:55;75.65;;;28.50;;
21705;SDS011;11014;53.076;18.208;2022-11-23T09:11:24;83.40;;;29.60;;
21705;SDS011;11014;53.076;18.208;2022-11-23T09:13:53;84.03;;;30.88;;
21705;SDS011;11014;53.076;18.208;2022-11-23T09:16:22;80.53;;;28.58;;
21705;SDS011;11014;53.076;18.208;2022-11-23T09:18:53;79.97;;;27.30;;
21705;SDS011;11014;53.076;18.208;2022-11-23T09:21:23;79.45;;;27.50;;
21705;SDS011;11014;53.076;18.208;2022-11-23T09:23:56;78.50;;;26.77;;
21705;SDS011;11014;53.076;18.208;2022-11-23T09:26:24;69.45;;;25.33;;
21705;SDS011;11014;53.076;18.208;2022-11-23T09:28:53;70.13;;;25.85;;
21705;SDS011;11014;53.076;18.208;2022-11-23T09:31:22;70.35;;;26.80;;
21705;SDS011;11014;53.076;18.208;2022-11-23T09:33:51;73.32;;;25.98;;
21705;SDS011;11014;53.076;18.208;2022-11-23T09:36:21;74.78;;;26.42;;
21705;SDS011;11014;53.076;18.208;2022-11-23T09:38:49;78.60;;;28.50;;
21705;SDS011;11014;53.076;18.208;2022-11-23T09:52:54;71.28;;;24.38;;
21705;SDS011;11014;53.076;18.208;2022-11-23T09:58:12;60.83;;;22.35;;
21705;SDS011;11014;53.076;18.208;2022-11-23T10:03:16;63.70;;;22.77;;
21705;SDS011;11014;53.076;18.208;2022-11-23T10:05:48;67.35;;;25.05;;
21705;SDS011;11014;53.076;18.208;2022-11-23T10:20:18;73.43;;;27.25;;
21705;SDS011;11014;53.076;18.208;2022-11-23T10:22:59;76.30;;;27.08;;
21705;SDS011;11014;53.076;18.208;2022-11-23T10:25:39;69.72;;;24.88;;
21705;SDS011;11014;53.076;18.208;2022-11-23T10:28:14;69.13;;;23.98;;
21705;SDS011;11014;53.076;18.208;2022-11-23T10:30:51;70.00;;;25.08;;
21705;SDS011;11014;53.076;18.208;2022-11-23T10:33:31;71.00;;;26.90;;
21705;SDS011;11014;53.076;18.208;2022-11-23T10:36:10;75.07;;;26.10;;
21705;SDS011;11014;53.076;18.208;2022-11-23T10:38:40;76.85;;;26.77;;
21705;SDS011;11014;53.076;18.208;2022-11-23T10:41:11;71.38;;;26.48;;
21705;SDS011;11014;53.076;18.208;2022-11-23T10:43:46;66.07;;;25.25;;
21705;SDS011;11014;53.076;18.208;2022-11-23T10:46:24;56.97;;;21.80;;
21705;SDS011;11014;53.076;18.208;2022-11-23T10:48:55;60.90;;;23.25;;
21705;SDS011;11014;53.076;18.208;2022-11-23T10:51:50;60.30;;;23.90;;
21705;SDS011;11014;53.076;18.208;2022-11-23T10:54:52;69.28;;;29.60;;
21705;SDS011;11014;53.076;18.208;2022-11-23T10:57:33;65.80;;;25.30;;
21705;SDS011;11014;53.076;18.208;2022-11-23T11:02:39;70.78;;;25.25;;
21705;SDS011;11014;53.076;18.208;2022-11-23T11:08:14;63.65;;;24.23;;
21705;SDS011;11014;53.076;18.208;2022-11-23T11:10:49;67.10;;;26.35;;
21705;SDS011;11014;53.076;18.208;2022-11-23T11:13:42;67.18;;;26.00;;
21705;SDS011;11014;53.076;18.208;2022-11-23T11:16:20;70.63;;;26.70;;
21705;SDS011;11014;53.076;18.208;2022-11-23T11:18:55;65.70;;;25.90;;
21705;SDS011;11014;53.076;18.208;2022-11-23T11:21:31;72.30;;;30.23;;
21705;SDS011;11014;53.076;18.208;2022-11-23T11:24:03;62.92;;;24.83;;
21705;SDS011;11014;53.076;18.208;2022-11-23T11:26:33;58.00;;;22.33;;
21705;SDS011;11014;53.076;18.208;2022-11-23T11:29:04;60.90;;;24.27;;
21705;SDS011;11014;53.076;18.208;2022-11-23T11:31:41;59.67;;;24.40;;
21705;SDS011;11014;53.076;18.208;2022-11-23T11:34:21;61.88;;;23.05;;
21705;SDS011;11014;53.076;18.208;2022-11-23T11:37:03;74.15;;;28.92;;
21705;SDS011;11014;53.076;18.208;2022-11-23T11:39:42;84.30;;;34.55;;
21705;SDS011;11014;53.076;18.208;2022-11-23T11:42:23;71.13;;;29.38;;
21705;SDS011;11014;53.076;18.208;2022-11-23T11:45:02;65.18;;;26.00;;
21705;SDS011;11014;53.076;18.208;2022-11-23T11:47:38;65.57;;;27.42;;
21705;SDS011;11014;53.076;18.208;2022-11-23T11:50:26;62.17;;;26.52;;
21705;SDS011;11014;53.076;18.208;2022-11-23T11:53:01;65.88;;;28.05;;
21705;SDS011;11014;53.076;18.208;2022-11-23T11:55:48;60.30;;;25.70;;
21705;SDS011;11014;53.076;18.208;2022-11-23T11:58:22;65.35;;;27.38;;
21705;SDS011;11014;53.076;18.208;2022-11-23T12:03:40;58.47;;;24.17;;
21705;SDS011;11014;53.076;18.208;2022-11-23T12:06:12;64.90;;;28.33;;
21705;SDS011;11014;53.076;18.208;2022-11-23T12:11:53;69.03;;;28.33;;
21705;SDS011;11014;53.076;18.208;2022-11-23T12:14:21;64.00;;;28.92;;
21705;SDS011;11014;53.076;18.208;2022-11-23T12:16:59;68.32;;;27.92;;
21705;SDS011;11014;53.076;18.208;2022-11-23T12:22:44;67.60;;;27.73;;
21705;SDS011;11014;53.076;18.208;2022-11-23T12:25:29;72.97;;;31.35;;
21705;SDS011;11014;53.076;18.208;2022-11-23T12:31:10;73.47;;;33.80;;
21705;SDS011;11014;53.076;18.208;2022-11-23T12:40:04;68.78;;;29.63;;
21705;SDS011;11014;53.076;18.208;2022-11-23T12:43:11;69.20;;;29.50;;
21705;SDS011;11014;53.076;18.208;2022-11-23T12:48:55;69.32;;;29.27;;
21705;SDS011;11014;53.076;18.208;2022-11-23T12:57:13;76.63;;;33.17;;
21705;SDS011;11014;53.076;18.208;2022-11-23T12:59:50;71.03;;;33.05;;
21705;SDS011;11014;53.076;18.208;2022-11-23T13:10:39;76.73;;;36.17;;
21705;SDS011;11014;53.076;18.208;2022-11-23T13:14:06;65.18;;;30.63;;
21705;SDS011;11014;53.076;18.208;2022-11-23T13:22:35;70.82;;;34.10;;
21705;SDS011;11014;53.076;18.208;2022-11-23T13:30:23;56.70;;;26.25;;
21705;SDS011;11014;53.076;18.208;2022-11-23T13:35:53;59.70;;;27.23;;
21705;SDS011;11014;53.076;18.208;2022-11-23T13:38:26;65.35;;;29.48;;
21705;SDS011;11014;53.076;18.208;2022-11-23T13:41:03;71.88;;;30.98;;
21705;SDS011;11014;53.076;18.208;2022-11-23T13:46:59;73.65;;;34.22;;
21705;SDS011;11014;53.076;18.208;2022-11-23T13:49:46;79.93;;;36.95;;
21705;SDS011;11014;53.076;18.208;2022-11-23T13:55:37;71.50;;;31.73;;
21705;SDS011;11014;53.076;18.208;2022-11-23T13:57:41;73.80;;;29.30;;
21705;SDS011;11014;53.076;18.208;2022-11-23T14:00:56;75.88;;;30.88;;
21705;SDS011;11014;53.076;18.208;2022-11-23T14:06:44;83.43;;;38.47;;
21705;SDS011;11014;53.076;18.208;2022-11-23T14:09:35;75.88;;;34.92;;
21705;SDS011;11014;53.076;18.208;2022-11-23T14:12:25;77.03;;;32.13;;
21705;SDS011;11014;53.076;18.208;2022-11-23T14:15:20;67.75;;;30.65;;
21705;SDS011;11014;53.076;18.208;2022-11-23T14:18:06;64.20;;;30.50;;
21705;SDS011;11014;53.076;18.208;2022-11-23T14:21:13;75.68;;;34.47;;
21705;SDS011;11014;53.076;18.208;2022-11-23T14:23:45;74.30;;;35.70;;
21705;SDS011;11014;53.076;18.208;2022-11-23T14:30:22;62.20;;;28.48;;
21705;SDS011;11014;53.076;18.208;2022-11-23T14:39:20;82.07;;;31.05;;
21705;SDS011;11014;53.076;18.208;2022-11-23T14:42:00;71.18;;;29.15;;
21705;SDS011;11014;53.076;18.208;2022-11-23T14:44:32;67.85;;;30.30;;
21705;SDS011;11014;53.076;18.208;2022-11-23T14:47:05;69.53;;;29.88;;
21705;SDS011;11014;53.076;18.208;2022-11-23T14:49:40;85.25;;;36.95;;
21705;SDS011;11014;53.076;18.208;2022-11-23T14:52:20;88.60;;;38.03;;
21705;SDS011;11014;53.076;18.208;2022-11-23T14:54:52;78.00;;;33.90;;
21705;SDS011;11014;53.076;18.208;2022-11-23T14:57:26;83.65;;;35.78;;
21705;SDS011;11014;53.076;18.208;2022-11-23T15:00:03;92.57;;;39.90;;
21705;SDS011;11014;53.076;18.208;2022-11-23T15:02:39;83.25;;;35.97;;
21705;SDS011;11014;53.076;18.208;2022-11-23T15:05:19;82.13;;;36.75;;
21705;SDS011;11014;53.076;18.208;2022-11-23T15:10:29;96.47;;;34.30;;
21705;SDS011;11014;53.076;18.208;2022-11-23T15:12:59;72.93;;;30.35;;
21705;SDS011;11014;53.076;18.208;2022-11-23T15:15:29;76.32;;;31.38;;
21705;SDS011;11014;53.076;18.208;2022-11-23T15:17:58;99.07;;;43.95;;
21705;SDS011;11014;53.076;18.208;2022-11-23T15:20:33;105.20;;;46.05;;
21705;SDS011;11014;53.076;18.208;2022-11-23T15:23:10;98.38;;;43.25;;
21705;SDS011;11014;53.076;18.208;2022-11-23T15:25:54;103.35;;;43.00;;
21705;SDS011;11014;53.076;18.208;2022-11-23T15:28:30;96.20;;;41.25;;
21705;SDS011;11014;53.076;18.208;2022-11-23T15:31:17;80.15;;;38.00;;
21705;SDS011;11014;53.076;18.208;2022-11-23T15:33:49;74.65;;;34.88;;
21705;SDS011;11014;53.076;18.208;2022-11-23T15:36:23;118.93;;;43.40;;
21705;SDS011;11014;53.076;18.208;2022-11-23T15:38:54;118.60;;;48.30;;
21705;SDS011;11014;53.076;18.208;2022-11-23T15:41:29;97.55;;;43.95;;
21705;SDS011;11014;53.076;18.208;2022-11-23T15:43:59;98.68;;;45.50;;
21705;SDS011;11014;53.076;18.208;2022-11-23T15:46:33;93.10;;;45.20;;
21705;SDS011;11014;53.076;18.208;2022-11-23T15:49:04;97.28;;;44.50;;
21705;SDS011;11014;53.076;18.208;2022-11-23T15:51:40;94.90;;;44.00;;
21705;SDS011;11014;53.076;18.208;2022-11-23T15:54:13;99.15;;;50.08;;
21705;SDS011;11014;53.076;18.208;2022-11-23T15:56:48;82.55;;;37.78;;
21705;SDS011;11014;53.076;18.208;2022-11-23T15:59:40;70.18;;;32.95;;
21705;SDS011;11014;53.076;18.208;2022-11-23T16:04:44;109.03;;;45.58;;
21705;SDS011;11014;53.076;18.208;2022-11-23T16:07:23;106.60;;;45.38;;
21705;SDS011;11014;53.076;18.208;2022-11-23T16:13:51;95.82;;;46.20;;
21705;SDS011;11014;53.076;18.208;2022-11-23T16:16:20;87.65;;;44.58;;
21705;SDS011;11014;53.076;18.208;2022-11-23T16:20:03;77.95;;;38.17;;
21705;SDS011;11014;53.076;18.208;2022-11-23T16:22:52;85.18;;;41.50;;
21705;SDS011;11014;53.076;18.208;2022-11-23T16:27:57;78.30;;;38.97;;
21705;SDS011;11014;53.076;18.208;2022-11-23T16:30:33;88.55;;;43.03;;
21705;SDS011;11014;53.076;18.208;2022-11-23T16:33:04;86.55;;;40.67;;
21705;SDS011;11014;53.076;18.208;2022-11-23T16:35:33;95.53;;;43.95;;
21705;SDS011;11014;53.076;18.208;2022-11-23T16:38:01;92.05;;;44.47;;
21705;SDS011;11014;53.076;18.208;2022-11-23T16:40:30;129.68;;;70.68;;
21705;SDS011;11014;53.076;18.208;2022-11-23T16:42:59;81.65;;;39.28;;
21705;SDS011;11014;53.076;18.208;2022-11-23T16:48:48;122.50;;;56.65;;
21705;SDS011;11014;53.076;18.208;2022-11-23T16:54:09;122.13;;;58.45;;
21705;SDS011;11014;53.076;18.208;2022-11-23T16:56:40;143.10;;;66.63;;